Time;durP1;ratioP1;P1;durP2;ratioP2;P2;SDS_P1;SDS_P2;PMS_P1;PMS_P2;Temp;Humidity;BMP_temperature;BMP_pressure;BME280_temperature;BME280_humidity;BME280_pressure;Samples;Min_cycle;Max_cycle;Signal;HPM_P1;HPM_P2
2023/02/27 00:01:19;;;;;;;2.33;2.13;;;2.50;99.90;;;;;;5000238;28;20504;-71
2023/02/27 00:03:46;;;;;;;1.87;1.53;;;2.40;99.90;;;;;;5001956;28;21044;-70
2023/02/27 00:06:13;;;;;;;3.03;2.13;;;2.30;99.90;;;;;;5007047;28;21072;-70
2023/02/27 00:08:40;;;;;;;2.40;2.20;;;2.20;99.90;;;;;;5005297;28;20882;-70
2023/02/27 00:11:07;;;;;;;2.90;2.03;;;2.20;99.90;;;;;;5000575;28;20446;-70
2023/02/27 00:13:35;;;;;;;1.93;1.73;;;2.30;99.90;;;;;;5008812;28;20559;-71
2023/02/27 00:16:02;;;;;;;3.23;2.43;;;2.40;99.90;;;;;;5006966;28;20882;-71
2023/02/27 00:18:29;;;;;;;1.90;1.77;;;2.30;99.90;;;;;;4998095;28;20556;-70
2023/02/27 00:20:56;;;;;;;5.07;4.57;;;2.40;99.90;;;;;;5006146;28;20446;-70
2023/02/27 00:23:23;;;;;;;4.43;2.63;;;2.30;99.90;;;;;;5000426;28;20458;-70
2023/02/27 00:25:51;;;;;;;7.10;2.20;;;2.30;99.90;;;;;;4998202;28;20433;-71
2023/02/27 00:28:18;;;;;;;2.70;1.93;;;2.30;99.90;;;;;;5007591;28;20453;-70
2023/02/27 00:30:48;;;;;;;3.47;1.77;;;2.10;99.90;;;;;;5005155;28;20471;-70
2023/02/27 00:33:15;;;;;;;1.57;1.47;;;2.00;99.90;;;;;;5005264;28;20435;-70
2023/02/27 00:35:42;;;;;;;1.83;1.63;;;1.90;99.90;;;;;;4990404;28;20575;-70
2023/02/27 00:38:09;;;;;;;2.40;1.77;;;2.00;99.90;;;;;;5007188;28;20518;-70
2023/02/27 00:40:36;;;;;;;3.10;2.03;;;1.70;99.90;;;;;;5009170;28;20439;-70
2023/02/27 00:43:04;;;;;;;2.80;1.83;;;1.50;99.90;;;;;;5001895;28;20540;-70
2023/02/27 00:45:30;;;;;;;3.87;1.73;;;1.60;99.90;;;;;;5007805;28;20820;-70
2023/02/27 00:47:59;;;;;;;1.50;1.30;;;1.60;99.90;;;;;;5009214;28;20448;-70
2023/02/27 00:50:25;;;;;;;2.97;1.60;;;1.60;99.90;;;;;;5005279;28;20477;-70
2023/02/27 00:52:52;;;;;;;3.33;1.40;;;1.40;99.90;;;;;;5000112;28;20462;-71
2023/02/27 00:55:19;;;;;;;1.17;1.07;;;1.50;99.90;;;;;;5005854;28;20573;-71
2023/02/27 00:57:46;;;;;;;2.40;2.17;;;1.70;99.90;;;;;;5002251;28;20450;-71
2023/02/27 01:00:14;;;;;;;2.70;1.97;;;1.70;99.90;;;;;;5005005;28;20511;-71
2023/02/27 01:02:41;;;;;;;1.20;1.00;;;1.90;99.90;;;;;;5006036;28;21047;-71
2023/02/27 01:05:10;;;;;;;3.53;1.70;;;2.00;99.90;;;;;;5001703;28;20431;-71
2023/02/27 01:07:37;;;;;;;1.97;1.77;;;2.00;99.90;;;;;;5001707;28;20456;-71
2023/02/27 01:10:05;;;;;;;9.47;2.00;;;1.90;99.90;;;;;;5004870;28;20793;-71
2023/02/27 01:12:32;;;;;;;4.60;2.50;;;1.90;99.90;;;;;;5000321;28;20458;-71
2023/02/27 01:14:59;;;;;;;6.50;1.90;;;1.90;99.90;;;;;;5001905;28;20495;-70
2023/02/27 01:17:26;;;;;;;3.50;1.97;;;2.00;99.90;;;;;;5000509;28;20491;-71
2023/02/27 01:19:53;;;;;;;1.57;1.20;;;2.00;99.90;;;;;;5001449;28;21033;-71
2023/02/27 01:22:21;;;;;;;2.90;1.87;;;2.00;99.90;;;;;;4997415;28;20444;-71
2023/02/27 01:24:48;;;;;;;1.67;1.57;;;2.00;99.90;;;;;;4985689;28;20421;-71
2023/02/27 01:27:15;;;;;;;3.40;1.37;;;2.00;99.90;;;;;;5002606;28;20561;-71
2023/02/27 01:29:42;;;;;;;3.03;1.50;;;1.90;99.90;;;;;;5001977;28;20870;-71
2023/02/27 01:32:09;;;;;;;1.67;1.40;;;1.90;99.90;;;;;;5002333;28;20462;-70
2023/02/27 01:34:36;;;;;;;3.97;2.03;;;1.80;99.90;;;;;;4998446;28;20992;-70
2023/02/27 01:37:03;;;;;;;2.73;1.80;;;1.80;99.90;;;;;;5004595;28;20568;-70
2023/02/27 01:39:32;;;;;;;1.30;1.20;;;1.80;99.90;;;;;;5001609;28;20524;-71
2023/02/27 01:41:59;;;;;;;1.27;1.17;;;1.80;99.90;;;;;;5006338;28;20447;-70
2023/02/27 01:44:28;;;;;;;2.07;1.57;;;1.80;99.90;;;;;;4999957;28;20500;-71
2023/02/27 01:46:56;;;;;;;2.57;1.70;;;1.90;99.90;;;;;;4996828;28;20459;-71
2023/02/27 01:49:26;;;;;;;1.60;1.50;;;1.80;99.90;;;;;;5001115;28;20972;-70
2023/02/27 01:52:00;;;;;;;1.60;1.50;;;1.90;99.90;;;;;;5000848;28;20520;-71
2023/02/27 01:54:30;;;;;;;6.70;1.73;;;1.90;99.90;;;;;;4998473;28;20962;-70
2023/02/27 01:57:01;;;;;;;1.60;1.20;;;1.70;99.90;;;;;;5006292;28;20492;-70
2023/02/27 01:59:28;;;;;;;2.23;1.43;;;1.50;99.90;;;;;;4999233;28;20486;-71
2023/02/27 02:01:57;;;;;;;2.73;1.83;;;1.60;99.90;;;;;;4998914;28;20531;-71
2023/02/27 02:04:27;;;;;;;13.43;1.77;;;1.50;99.90;;;;;;5007468;28;20838;-71
2023/02/27 02:07:00;;;;;;;1.13;1.00;;;1.40;99.90;;;;;;5003756;28;20488;-71
2023/02/27 02:09:28;;;;;;;1.53;1.10;;;1.40;99.90;;;;;;5000240;28;20452;-71
2023/02/27 02:11:59;;;;;;;1.33;1.23;;;1.30;99.90;;;;;;5002497;28;20436;-71
2023/02/27 02:14:26;;;;;;;2.13;1.10;;;1.30;99.90;;;;;;4997998;28;20492;-71
2023/02/27 02:17:05;;;;;;;1.10;0.90;;;1.20;99.90;;;;;;4982112;28;20488;-71
2023/02/27 02:19:59;;;;;;;2.03;1.83;;;1.10;99.90;;;;;;5006741;28;20915;-71
2023/02/27 02:22:58;;;;;;;1.47;1.10;;;1.00;99.90;;;;;;4972597;28;20964;-71
2023/02/27 02:25:59;;;;;;;1.90;1.17;;;0.80;99.90;;;;;;5000595;28;20828;-71
2023/02/27 02:28:49;;;;;;;2.30;1.33;;;0.90;99.90;;;;;;5002895;28;20987;-70
2023/02/27 02:31:49;;;;;;;3.57;1.50;;;0.70;99.90;;;;;;5002131;28;20457;-71
2023/02/27 02:35:08;;;;;;;2.47;1.70;;;0.50;99.90;;;;;;5000430;28;20472;-71
2023/02/27 02:38:03;;;;;;;1.70;1.40;;;0.50;99.90;;;;;;5001588;28;20478;-71
2023/02/27 02:40:38;;;;;;;2.57;1.23;;;0.30;99.90;;;;;;5001356;28;20489;-71
2023/02/27 02:43:11;;;;;;;1.97;1.77;;;0.30;99.90;;;;;;5001146;28;20815;-71
2023/02/27 02:45:46;;;;;;;1.77;1.30;;;0.30;99.90;;;;;;5002366;28;20860;-71
2023/02/27 02:48:18;;;;;;;2.23;1.80;;;0.50;99.90;;;;;;5000680;28;20503;-71
2023/02/27 02:50:50;;;;;;;2.40;1.80;;;0.70;99.90;;;;;;5005006;28;24705;-71
2023/02/27 02:53:26;;;;;;;14.50;2.20;;;0.70;99.90;;;;;;5003843;28;20511;-71
2023/02/27 02:56:04;;;;;;;1.80;1.40;;;0.70;99.90;;;;;;4999192;28;20465;-71
2023/02/27 02:58:36;;;;;;;2.43;2.07;;;0.60;99.90;;;;;;5004128;28;20825;-71
2023/02/27 03:01:09;;;;;;;2.87;1.60;;;0.40;99.90;;;;;;4998375;28;20501;-71
2023/02/27 03:03:40;;;;;;;3.00;1.40;;;0.40;99.90;;;;;;5002021;28;20585;-71
2023/02/27 03:06:11;;;;;;;4.13;2.50;;;0.20;99.90;;;;;;5001361;28;20505;-71
2023/02/27 03:08:43;;;;;;;1.47;1.00;;;0.30;99.90;;;;;;5002386;28;20436;-71
2023/02/27 03:11:13;;;;;;;1.70;1.23;;;0.40;99.90;;;;;;5001208;28;20453;-71
2023/02/27 03:13:45;;;;;;;2.07;1.87;;;0.40;99.90;;;;;;5003373;28;20947;-71
2023/02/27 03:16:17;;;;;;;1.77;1.57;;;0.20;99.90;;;;;;5006601;28;20581;-71
2023/02/27 03:18:50;;;;;;;9.20;2.37;;;0.10;99.90;;;;;;5019941;28;20448;-71
2023/02/27 03:21:24;;;;;;;1.97;1.43;;;0.10;99.90;;;;;;5006314;28;20913;-71
2023/02/27 03:23:54;;;;;;;1.67;1.37;;;0.10;99.90;;;;;;5008967;28;20434;-71
2023/02/27 03:26:29;;;;;;;1.80;1.40;;;0.30;99.90;;;;;;5000009;28;20530;-70
2023/02/27 03:29:01;;;;;;;1.90;1.50;;;0.20;99.90;;;;;;5002414;28;20464;-70
2023/02/27 03:31:33;;;;;;;2.27;1.90;;;0.40;99.90;;;;;;5001505;28;20540;-70
2023/02/27 03:34:06;;;;;;;2.93;1.40;;;0.40;99.90;;;;;;5000282;28;20675;-70
2023/02/27 03:36:42;;;;;;;1.63;1.53;;;0.30;99.90;;;;;;5001814;28;20552;-70
2023/02/27 03:39:19;;;;;;;2.43;1.93;;;0.20;99.90;;;;;;5002857;28;20430;-70
2023/02/27 03:41:51;;;;;;;1.57;1.47;;;0.10;99.90;;;;;;5007647;28;20515;-69
2023/02/27 03:44:27;;;;;;;3.73;2.57;;;0.00;99.90;;;;;;5001954;28;20480;-70
2023/02/27 03:46:55;;;;;;;2.70;1.70;;;0.10;99.90;;;;;;5007527;28;20498;-69
2023/02/27 03:49:22;;;;;;;3.00;2.40;;;0.30;99.90;;;;;;5005937;28;20544;-69
2023/02/27 03:51:49;;;;;;;2.37;1.50;;;0.30;99.90;;;;;;5000192;28;20432;-70
2023/02/27 03:54:20;;;;;;;5.27;1.57;;;0.30;99.90;;;;;;4995983;28;20458;-70
2023/02/27 03:56:55;;;;;;;1.40;1.30;;;0.30;99.90;;;;;;5000059;28;20570;-69
2023/02/27 03:59:24;;;;;;;3.53;2.00;;;0.20;99.90;;;;;;5000881;28;21068;-70
2023/02/27 04:01:52;;;;;;;8.23;1.83;;;0.20;99.90;;;;;;4997809;28;20540;-70
2023/02/27 04:04:19;;;;;;;1.30;1.20;;;0.20;99.90;;;;;;5000733;28;20470;-70
2023/02/27 04:09:50;;;;;;;2.30;1.90;;;0.00;99.90;;;;;;4997860;28;20436;-70
2023/02/27 04:12:36;;;;;;;7.30;1.83;;;-0.20;99.90;;;;;;5001026;28;20520;-70
2023/02/27 04:15:13;;;;;;;5.30;1.97;;;-0.20;99.90;;;;;;4999188;28;20511;-70
2023/02/27 04:17:51;;;;;;;2.07;1.73;;;-0.10;99.90;;;;;;5004585;28;20519;-70
2023/02/27 04:20:36;;;;;;;4.50;1.93;;;0.00;99.90;;;;;;4995671;28;20796;-70
2023/02/27 04:23:09;;;;;;;1.50;1.40;;;0.20;99.90;;;;;;4996826;28;20461;-71
2023/02/27 04:25:53;;;;;;;1.43;1.33;;;0.20;99.90;;;;;;4999155;28;20957;-70
2023/02/27 04:28:27;;;;;;;3.50;1.70;;;0.10;99.90;;;;;;5003134;28;20889;-70
2023/02/27 04:31:02;;;;;;;2.47;1.60;;;0.00;99.90;;;;;;4994784;28;20472;-71
2023/02/27 04:33:42;;;;;;;4.33;2.47;;;-0.20;99.90;;;;;;5001443;28;20453;-71
2023/02/27 04:36:13;;;;;;;8.10;2.40;;;-0.30;99.90;;;;;;5003787;28;20584;-70
2023/02/27 04:38:46;;;;;;;2.13;1.77;;;-0.40;99.90;;;;;;4999500;28;20567;-71
2023/02/27 04:41:19;;;;;;;4.70;1.90;;;-0.40;99.90;;;;;;5001094;28;20567;-70
2023/02/27 04:43:49;;;;;;;3.57;2.37;;;-0.30;99.90;;;;;;4999403;28;20454;-71
2023/02/27 04:46:21;;;;;;;1.20;1.10;;;-0.30;99.90;;;;;;5008624;28;20534;-71
2023/02/27 04:48:53;;;;;;;1.77;1.63;;;-0.20;99.90;;;;;;5013063;28;20435;-70
2023/02/27 04:51:25;;;;;;;4.17;2.10;;;-0.10;99.90;;;;;;5004200;28;20981;-71
2023/02/27 04:53:57;;;;;;;3.00;2.80;;;-0.10;99.90;;;;;;5003404;28;20446;-69
2023/02/27 04:56:30;;;;;;;3.60;3.30;;;-0.10;99.90;;;;;;5003025;28;20552;-69
2023/02/27 04:59:01;;;;;;;4.70;2.80;;;-0.20;99.90;;;;;;5002686;28;20460;-70
2023/02/27 05:01:34;;;;;;;4.23;1.77;;;-0.20;99.90;;;;;;5004175;28;20484;-70
2023/02/27 05:04:03;;;;;;;2.93;2.10;;;-0.30;99.90;;;;;;4999699;28;20465;-70
2023/02/27 05:06:34;;;;;;;9.53;2.30;;;-0.30;99.90;;;;;;5002794;28;21093;-70
2023/02/27 05:09:10;;;;;;;1.80;1.00;;;-0.30;99.90;;;;;;5006736;28;20457;-70
2023/02/27 05:11:44;;;;;;;2.03;1.63;;;-0.30;99.90;;;;;;5002938;28;20464;-70
2023/02/27 05:14:16;;;;;;;1.57;1.43;;;-0.50;99.90;;;;;;5002587;28;20531;-70
2023/02/27 05:16:49;;;;;;;2.70;1.67;;;-0.60;99.90;;;;;;5006486;28;20485;-70
2023/02/27 05:19:16;;;;;;;9.40;1.23;;;-0.70;99.90;;;;;;5005652;28;20509;-69
2023/02/27 05:21:53;;;;;;;1.73;1.63;;;-0.70;99.90;;;;;;5013710;28;20541;-70
2023/02/27 05:24:29;;;;;;;2.87;2.37;;;-0.70;99.90;;;;;;5001860;28;20462;-70
2023/02/27 05:27:18;;;;;;;1.73;1.50;;;-0.70;99.90;;;;;;5004148;28;20482;-70
2023/02/27 05:29:49;;;;;;;34.40;2.43;;;-0.70;99.90;;;;;;5008114;28;20468;-70
2023/02/27 05:32:29;;;;;;;10.80;2.83;;;-0.80;99.90;;;;;;5002830;28;20467;-70
2023/02/27 05:35:02;;;;;;;3.73;1.73;;;-0.70;99.90;;;;;;5005539;28;20465;-70
2023/02/27 05:37:33;;;;;;;5.53;1.53;;;-0.70;99.90;;;;;;5007875;28;20578;-71
2023/02/27 05:40:04;;;;;;;2.50;1.50;;;-0.80;99.90;;;;;;5001986;28;20478;-71
2023/02/27 05:42:36;;;;;;;2.50;1.90;;;-0.80;99.90;;;;;;5001713;28;20469;-70
2023/02/27 05:45:10;;;;;;;6.00;2.90;;;-0.80;99.90;;;;;;5000827;28;20501;-70
2023/02/27 05:47:43;;;;;;;2.30;1.77;;;-0.80;99.90;;;;;;5003022;28;20950;-70
2023/02/27 05:50:15;;;;;;;11.27;2.03;;;-0.90;99.90;;;;;;5009815;28;20975;-70
2023/02/27 05:52:44;;;;;;;11.40;3.00;;;-0.90;99.90;;;;;;5011888;28;20839;-69
2023/02/27 05:55:17;;;;;;;21.47;1.63;;;-0.80;99.90;;;;;;5020388;28;20441;-70
2023/02/27 05:57:48;;;;;;;2.40;2.20;;;-0.70;99.90;;;;;;5004858;28;20477;-70
2023/02/27 06:00:24;;;;;;;3.43;3.13;;;-0.80;99.90;;;;;;5005777;28;20448;-71
2023/02/27 06:02:54;;;;;;;2.13;1.53;;;-0.80;99.90;;;;;;5009252;28;20956;-70
2023/02/27 06:05:21;;;;;;;2.80;1.90;;;-0.80;99.90;;;;;;5004798;28;21020;-70
2023/02/27 06:07:48;;;;;;;2.33;1.63;;;-0.60;99.90;;;;;;5003609;28;20830;-70
2023/02/27 06:10:19;;;;;;;2.93;1.93;;;-0.60;99.90;;;;;;5004689;28;20470;-70
2023/02/27 06:12:46;;;;;;;5.50;2.30;;;-0.60;99.90;;;;;;5006790;28;20464;-70
2023/02/27 06:15:13;;;;;;;2.93;2.63;;;-0.50;99.90;;;;;;5012325;28;20532;-69
2023/02/27 06:17:41;;;;;;;2.60;1.93;;;-0.60;99.90;;;;;;5001262;28;20495;-69
2023/02/27 06:20:09;;;;;;;2.90;2.20;;;-0.50;99.90;;;;;;5009532;28;20555;-70
2023/02/27 06:22:36;;;;;;;4.43;2.80;;;-0.60;99.90;;;;;;5004522;28;20829;-70
2023/02/27 06:25:04;;;;;;;2.27;1.97;;;-0.50;99.90;;;;;;5008006;28;20461;-69
2023/02/27 06:27:31;;;;;;;7.70;2.93;;;-0.60;99.90;;;;;;5004736;28;20826;-69
2023/02/27 06:29:58;;;;;;;1.50;1.40;;;-0.50;99.90;;;;;;5008569;28;20531;-70
2023/02/27 06:32:25;;;;;;;2.10;1.80;;;-0.60;99.90;;;;;;5003424;28;20458;-70
2023/02/27 06:34:53;;;;;;;5.40;2.73;;;-0.70;99.90;;;;;;5010457;28;20453;-71
2023/02/27 06:37:21;;;;;;;5.13;4.67;;;-0.80;99.90;;;;;;5004051;28;20547;-71
2023/02/27 06:39:48;;;;;;;6.97;1.97;;;-0.80;99.90;;;;;;5005058;28;20430;-71
2023/02/27 06:42:15;;;;;;;3.97;3.43;;;-0.80;99.90;;;;;;5007166;28;20906;-70
2023/02/27 06:44:42;;;;;;;8.13;2.43;;;-0.80;99.90;;;;;;5004679;28;20540;-71
2023/02/27 06:47:09;;;;;;;5.43;2.87;;;-0.80;99.90;;;;;;5004582;28;20474;-71
2023/02/27 06:49:36;;;;;;;2.80;2.10;;;-0.70;99.90;;;;;;5002496;28;20457;-71
2023/02/27 06:52:04;;;;;;;5.67;1.80;;;-0.50;99.90;;;;;;5005218;28;20458;-71
2023/02/27 06:54:32;;;;;;;3.80;2.40;;;-0.40;99.90;;;;;;5003313;28;20457;-71
2023/02/27 06:56:59;;;;;;;15.20;2.90;;;-0.20;99.90;;;;;;5009710;28;20481;-71
2023/02/27 06:59:26;;;;;;;2.67;2.37;;;-0.20;99.90;;;;;;5008783;28;20499;-70
2023/02/27 07:01:53;;;;;;;14.90;3.30;;;0.00;99.90;;;;;;5004847;28;20454;-71
2023/02/27 07:04:20;;;;;;;4.03;2.70;;;0.10;99.90;;;;;;5002904;28;20465;-71
2023/02/27 07:06:49;;;;;;;3.83;3.53;;;0.40;99.90;;;;;;5004207;28;20465;-71
2023/02/27 07:09:17;;;;;;;5.10;4.00;;;0.80;99.90;;;;;;5010895;28;20457;-71
2023/02/27 07:11:44;;;;;;;5.57;2.90;;;0.90;99.90;;;;;;5005530;28;20479;-71
2023/02/27 07:14:14;;;;;;;2.70;2.50;;;0.90;99.90;;;;;;4998706;28;20490;-71
2023/02/27 07:16:40;;;;;;;6.70;3.00;;;0.90;99.90;;;;;;5002771;28;20511;-71
2023/02/27 07:19:08;;;;;;;6.67;3.57;;;0.70;99.90;;;;;;5007338;28;20464;-71
2023/02/27 07:21:35;;;;;;;4.30;3.27;;;0.80;99.90;;;;;;5009704;28;20507;-71
2023/02/27 07:24:04;;;;;;;3.73;3.30;;;0.90;99.90;;;;;;5004579;28;20439;-71
2023/02/27 07:26:34;;;;;;;3.03;2.30;;;1.10;99.90;;;;;;5000276;28;20536;-71
2023/02/27 07:29:02;;;;;;;3.87;3.20;;;1.10;99.90;;;;;;5007384;28;20974;-71
2023/02/27 07:31:29;;;;;;;4.17;2.77;;;1.00;99.90;;;;;;5002379;28;20559;-71
2023/02/27 07:33:56;;;;;;;3.40;2.90;;;1.10;99.90;;;;;;4998590;28;20437;-71
2023/02/27 07:36:24;;;;;;;6.90;2.30;;;1.30;99.90;;;;;;5004502;28;20480;-71
2023/02/27 07:38:51;;;;;;;2.50;2.30;;;1.40;99.90;;;;;;5009781;28;20517;-71
2023/02/27 07:41:19;;;;;;;4.50;2.67;;;1.50;99.90;;;;;;5005102;28;20525;-71
2023/02/27 07:43:51;;;;;;;11.60;3.67;;;1.70;99.90;;;;;;4999119;28;20796;-70
2023/02/27 07:46:19;;;;;;;3.67;3.37;;;1.90;99.90;;;;;;5003233;28;20950;-70
2023/02/27 07:48:48;;;;;;;5.00;2.97;;;2.20;99.90;;;;;;5002289;28;20468;-70
2023/02/27 07:51:15;;;;;;;2.90;2.43;;;2.50;99.90;;;;;;5005723;28;20909;-70
2023/02/27 07:53:43;;;;;;;2.97;2.57;;;2.50;99.90;;;;;;5003706;28;20532;-70
2023/02/27 07:56:11;;;;;;;2.80;2.60;;;2.80;99.90;;;;;;5001538;28;20448;-70
2023/02/27 07:58:39;;;;;;;2.53;2.30;;;3.00;99.90;;;;;;5011387;28;20919;-71
2023/02/27 08:01:08;;;;;;;5.40;2.33;;;3.40;99.90;;;;;;5016212;28;20427;-72
2023/02/27 08:03:35;;;;;;;5.87;2.60;;;3.70;99.90;;;;;;5022343;28;20441;-69
2023/02/27 08:06:03;;;;;;;2.57;2.37;;;3.60;99.90;;;;;;4999138;28;20972;-70
2023/02/27 08:08:31;;;;;;;3.83;3.10;;;3.40;99.90;;;;;;5000317;28;20421;-71
2023/02/27 08:10:58;;;;;;;9.33;2.07;;;3.40;99.90;;;;;;5012060;28;20465;-71
2023/02/27 08:13:26;;;;;;;3.70;3.37;;;3.40;99.90;;;;;;4997109;28;20445;-71
2023/02/27 08:15:54;;;;;;;3.47;2.77;;;3.40;99.90;;;;;;5005447;28;20431;-71
2023/02/27 08:18:24;;;;;;;3.37;2.60;;;3.40;99.90;;;;;;4997153;28;20485;-71
2023/02/27 08:20:51;;;;;;;2.17;1.97;;;3.10;99.90;;;;;;5005951;28;20459;-71
2023/02/27 08:23:18;;;;;;;3.67;2.53;;;2.90;99.90;;;;;;5004913;28;21099;-70
2023/02/27 08:25:48;;;;;;;2.33;2.13;;;3.20;99.90;;;;;;5005761;28;20446;-71
2023/02/27 08:28:17;;;;;;;4.43;2.63;;;3.30;99.90;;;;;;5026875;28;20553;-70
2023/02/27 08:30:43;;;;;;;3.30;2.60;;;3.20;99.90;;;;;;5008492;28;20425;-71
2023/02/27 08:33:10;;;;;;;3.10;2.00;;;3.30;99.90;;;;;;5013741;28;20501;-71
2023/02/27 08:35:39;;;;;;;2.10;2.00;;;3.40;99.90;;;;;;5007734;28;20428;-70
2023/02/27 08:38:06;;;;;;;5.30;2.43;;;3.70;99.90;;;;;;5007280;28;20574;-70
2023/02/27 08:40:34;;;;;;;5.10;3.20;;;3.50;99.90;;;;;;5013643;28;20479;-71
2023/02/27 08:43:02;;;;;;;3.97;2.70;;;3.80;99.90;;;;;;5005037;28;20477;-71
2023/02/27 08:45:30;;;;;;;2.90;2.60;;;4.50;99.90;;;;;;5012133;28;20457;-71
2023/02/27 08:47:58;;;;;;;2.80;2.37;;;5.20;99.90;;;;;;5010936;28;20468;-71
2023/02/27 08:50:27;;;;;;;2.70;2.37;;;5.80;99.90;;;;;;5008527;28;20492;-71
2023/02/27 08:52:56;;;;;;;5.50;2.80;;;6.80;99.90;;;;;;5006010;28;20429;-71
2023/02/27 08:55:23;;;;;;;2.40;2.20;;;7.40;99.90;;;;;;5002909;28;21101;-71
2023/02/27 08:57:50;;;;;;;4.17;2.80;;;8.50;99.90;;;;;;5008366;28;20990;-71
2023/02/27 09:00:18;;;;;;;2.70;2.43;;;9.50;99.90;;;;;;5011388;28;20909;-72
2023/02/27 09:02:45;;;;;;;4.70;2.40;;;9.90;99.90;;;;;;5007633;28;20462;-71
2023/02/27 09:05:13;;;;;;;3.10;2.40;;;9.60;99.90;;;;;;5007482;28;20530;-71
2023/02/27 09:07:43;;;;;;;2.57;2.30;;;9.20;99.90;;;;;;5011238;28;20843;-71
2023/02/27 09:10:13;;;;;;;2.47;2.17;;;9.40;99.90;;;;;;5008650;28;20508;-71
2023/02/27 09:12:43;;;;;;;3.70;2.87;;;9.60;99.90;;;;;;5012778;28;20436;-71
2023/02/27 09:15:12;;;;;;;2.87;2.57;;;10.10;99.90;;;;;;5002284;28;20440;-71
2023/02/27 09:17:40;;;;;;;5.30;2.10;;;11.10;99.90;;;;;;5005737;28;20504;-71
2023/02/27 09:20:11;;;;;;;7.40;2.73;;;11.80;99.00;;;;;;5002353;28;20552;-71
2023/02/27 09:22:37;;;;;;;3.83;2.63;;;12.80;97.00;;;;;;5012017;28;20512;-71
2023/02/27 09:25:05;;;;;;;2.87;2.40;;;13.30;94.70;;;;;;5006270;28;20462;-71
2023/02/27 09:27:35;;;;;;;3.50;2.33;;;13.30;93.10;;;;;;4989482;28;20501;-71
2023/02/27 09:30:02;;;;;;;4.53;2.30;;;13.60;92.80;;;;;;5006485;28;20519;-71
2023/02/27 09:32:31;;;;;;;2.23;2.00;;;13.90;91.40;;;;;;5000876;28;20489;-70
2023/02/27 09:34:59;;;;;;;4.70;2.30;;;13.70;89.50;;;;;;4998061;28;20988;-71
2023/02/27 09:37:27;;;;;;;5.50;2.57;;;14.00;89.90;;;;;;5006780;28;20489;-70
2023/02/27 09:39:54;;;;;;;3.27;2.40;;;14.60;88.10;;;;;;5011339;28;20465;-72
2023/02/27 09:42:26;;;;;;;3.50;2.77;;;15.00;84.80;;;;;;5008764;28;21188;-71
2023/02/27 09:44:58;;;;;;;8.50;2.10;;;15.30;84.00;;;;;;5008690;28;20480;-71
2023/02/27 09:47:28;;;;;;;5.47;2.43;;;13.70;83.40;;;;;;5006436;28;20478;-71
2023/02/27 09:50:02;;;;;;;2.73;2.53;;;13.50;83.00;;;;;;4999115;28;20537;-71
2023/02/27 09:52:32;;;;;;;4.50;2.73;;;13.00;85.80;;;;;;5006625;28;20442;-70
2023/02/27 09:55:00;;;;;;;2.20;1.67;;;13.60;86.40;;;;;;4996318;28;20497;-70
2023/02/27 09:57:42;;;;;;;5.40;2.20;;;14.00;84.30;;;;;;5008323;28;20864;-71
2023/02/27 10:00:29;;;;;;;2.37;1.73;;;14.80;83.00;;;;;;5006074;28;20449;-70
2023/02/27 10:03:04;;;;;;;4.80;1.90;;;14.70;82.30;;;;;;5008416;28;20457;-70
2023/02/27 10:05:39;;;;;;;3.20;1.60;;;15.20;79.30;;;;;;5001363;28;20536;-70
2023/02/27 10:08:14;;;;;;;1.93;1.50;;;15.30;76.50;;;;;;5010761;28;20457;-69
2023/02/27 10:10:50;;;;;;;1.77;1.30;;;14.40;78.10;;;;;;4995316;28;20460;-70
2023/02/27 10:13:36;;;;;;;2.40;1.67;;;14.60;77.20;;;;;;5000894;28;20478;-69
2023/02/27 10:16:05;;;;;;;1.63;1.27;;;14.80;76.00;;;;;;5001271;28;20477;-70
2023/02/27 10:18:40;;;;;;;2.33;1.50;;;14.30;75.10;;;;;;5004982;28;20470;-70
2023/02/27 10:21:12;;;;;;;3.70;2.97;;;14.40;77.60;;;;;;5029578;28;20495;-70
2023/02/27 10:23:45;;;;;;;1.80;1.30;;;15.20;77.50;;;;;;5008301;28;20454;-71
2023/02/27 10:26:19;;;;;;;3.90;1.60;;;15.10;75.30;;;;;;5001298;28;20531;-70
2023/02/27 10:28:47;;;;;;;3.13;2.90;;;15.90;73.50;;;;;;5006886;28;20449;-70
2023/02/27 10:31:21;;;;;;;3.20;1.63;;;16.10;74.20;;;;;;4999683;28;20457;-70
2023/02/27 10:33:48;;;;;;;3.33;1.43;;;15.70;70.50;;;;;;5004838;28;20489;-70
2023/02/27 10:36:18;;;;;;;5.53;1.80;;;15.50;69.50;;;;;;5004411;28;20552;-70
2023/02/27 10:38:50;;;;;;;2.83;1.47;;;16.10;72.50;;;;;;5004468;28;20533;-70
2023/02/27 10:41:20;;;;;;;2.37;1.53;;;17.00;69.00;;;;;;5004710;28;20486;-70
2023/02/27 10:43:49;;;;;;;3.57;1.43;;;16.30;66.50;;;;;;5006151;28;20541;-70
2023/02/27 10:46:23;;;;;;;2.90;1.57;;;15.50;67.60;;;;;;5000163;28;20481;-70
2023/02/27 10:48:51;;;;;;;2.27;1.50;;;15.70;70.50;;;;;;5012996;28;20815;-70
2023/02/27 10:51:26;;;;;;;1.40;1.20;;;15.30;69.40;;;;;;5005636;28;20500;-70
2023/02/27 10:54:15;;;;;;;1.60;1.17;;;14.90;67.70;;;;;;5005378;28;20450;-70
2023/02/27 10:56:49;;;;;;;1.60;1.50;;;13.80;69.40;;;;;;5018264;28;20498;-70
2023/02/27 10:59:23;;;;;;;2.53;1.43;;;12.80;71.30;;;;;;5016689;28;20484;-71
2023/02/27 11:01:53;;;;;;;1.87;1.30;;;12.20;72.10;;;;;;5007567;28;20511;-70
2023/02/27 11:04:29;;;;;;;1.50;1.30;;;11.60;74.00;;;;;;4997620;28;20469;-70
2023/02/27 11:06:57;;;;;;;1.70;1.30;;;10.60;76.40;;;;;;5004395;28;20493;-70
2023/02/27 11:09:26;;;;;;;2.77;1.50;;;9.50;79.10;;;;;;5005064;28;20985;-70
2023/02/27 11:11:54;;;;;;;4.87;1.80;;;9.20;81.60;;;;;;5011585;28;20569;-70
2023/02/27 11:14:27;;;;;;;2.37;1.63;;;9.00;83.50;;;;;;5010890;28;20461;-70
2023/02/27 11:16:56;;;;;;;3.30;2.27;;;8.90;84.00;;;;;;5008621;28;20475;-70
2023/02/27 11:19:32;;;;;;;3.17;1.53;;;8.60;86.00;;;;;;5003650;28;20524;-70
2023/02/27 11:22:02;;;;;;;3.00;1.57;;;8.90;86.10;;;;;;5008773;28;20436;-69
2023/02/27 11:24:29;;;;;;;1.93;1.33;;;9.20;86.10;;;;;;5000841;28;20461;-70
2023/02/27 11:26:58;;;;;;;3.93;1.50;;;9.80;86.10;;;;;;5004807;28;20508;-70
2023/02/27 11:29:27;;;;;;;9.37;1.93;;;9.40;84.60;;;;;;4996205;28;20468;-70
2023/02/27 11:31:57;;;;;;;1.50;1.20;;;9.40;85.80;;;;;;5005530;28;20461;-70
2023/02/27 11:34:27;;;;;;;1.20;1.00;;;9.20;87.10;;;;;;4997150;28;20476;-70
2023/02/27 11:36:59;;;;;;;1.90;1.50;;;9.40;86.50;;;;;;5000381;28;20559;-70
2023/02/27 11:39:38;;;;;;;1.60;1.50;;;10.30;83.70;;;;;;5000726;28;20553;-70
2023/02/27 11:42:18;;;;;;;1.87;1.70;;;11.80;84.10;;;;;;5003021;28;20446;-70
2023/02/27 11:44:54;;;;;;;3.40;1.40;;;12.30;77.40;;;;;;5006369;28;20450;-70
2023/02/27 11:47:26;;;;;;;3.00;1.30;;;12.20;80.50;;;;;;5000509;28;20521;-71
2023/02/27 11:50:27;;;;;;;2.50;1.47;;;13.00;76.50;;;;;;4999080;28;20982;-70
2023/02/27 11:53:01;;;;;;;2.00;1.67;;;12.90;75.00;;;;;;5002636;28;20531;-70
2023/02/27 11:55:31;;;;;;;4.90;1.77;;;11.40;77.10;;;;;;5008958;28;20437;-70
2023/02/27 11:58:05;;;;;;;1.63;1.10;;;12.00;79.20;;;;;;5000469;28;20548;-70
2023/02/27 12:00:38;;;;;;;3.67;1.90;;;12.80;75.90;;;;;;5010079;28;20483;-71
2023/02/27 12:03:16;;;;;;;6.07;1.50;;;13.10;75.60;;;;;;5007451;28;20472;-70
2023/02/27 12:05:47;;;;;;;4.10;1.97;;;13.60;75.80;;;;;;5002356;28;20457;-70
2023/02/27 12:08:20;;;;;;;1.93;1.30;;;13.90;73.00;;;;;;5008100;28;20445;-71
2023/02/27 12:10:55;;;;;;;2.40;1.30;;;14.60;71.70;;;;;;5007552;28;20513;-69
2023/02/27 12:13:24;;;;;;;1.83;1.30;;;15.00;69.90;;;;;;5008876;28;20452;-70
2023/02/27 12:15:58;;;;;;;3.63;1.40;;;15.00;66.60;;;;;;5008570;28;20462;-70
2023/02/27 12:18:31;;;;;;;2.30;1.33;;;14.70;68.10;;;;;;5014808;28;20814;-70
2023/02/27 12:21:02;;;;;;;6.40;2.03;;;14.70;66.80;;;;;;5008060;28;20466;-70
2023/02/27 12:23:34;;;;;;;2.63;2.20;;;13.10;67.60;;;;;;5009604;28;20952;-71
2023/02/27 12:26:06;;;;;;;3.77;2.10;;;11.80;69.90;;;;;;5006628;28;20502;-71
2023/02/27 12:28:43;;;;;;;5.00;1.63;;;11.10;71.50;;;;;;5006970;28;20453;-70
2023/02/27 12:31:42;;;;;;;2.47;2.13;;;10.70;75.80;;;;;;5011656;28;20464;-70
2023/02/27 12:34:19;;;;;;;1.70;1.47;;;9.90;79.50;;;;;;4986839;28;20516;-71
2023/02/27 12:36:47;;;;;;;2.20;2.00;;;9.90;82.10;;;;;;5009959;28;20480;-69
2023/02/27 12:39:19;;;;;;;1.50;1.27;;;9.80;80.50;;;;;;5007476;28;20481;-70
2023/02/27 12:42:13;;;;;;;4.30;1.40;;;9.50;81.30;;;;;;5007641;28;20466;-70
2023/02/27 12:44:56;;;;;;;1.50;1.27;;;9.60;83.80;;;;;;4978571;28;20566;-70
2023/02/27 12:47:31;;;;;;;1.47;1.27;;;10.20;82.70;;;;;;5008362;28;20459;-70
2023/02/27 12:50:05;;;;;;;7.10;1.40;;;9.90;84.00;;;;;;5007728;28;20519;-70
2023/02/27 12:52:44;;;;;;;1.90;1.73;;;9.30;85.40;;;;;;5010702;28;20488;-69
2023/02/27 12:55:16;;;;;;;2.27;1.70;;;9.60;87.20;;;;;;5004979;28;20460;-69
2023/02/27 12:58:04;;;;;;;2.67;1.70;;;10.90;85.50;;;;;;4999617;28;20475;-70
2023/02/27 13:00:40;;;;;;;1.90;1.60;;;12.60;76.80;;;;;;5004621;28;20461;-70
2023/02/27 13:03:15;;;;;;;2.53;1.80;;;13.90;71.70;;;;;;5007679;28;20453;-70
2023/02/27 13:05:51;;;;;;;2.30;1.70;;;13.80;70.20;;;;;;5002697;28;20453;-71
2023/02/27 13:08:48;;;;;;;2.17;1.50;;;13.80;71.10;;;;;;5005764;28;20464;-70
2023/02/27 13:11:28;;;;;;;2.27;2.07;;;14.50;69.10;;;;;;5006434;28;20457;-70
2023/02/27 13:14:01;;;;;;;2.20;1.60;;;15.60;67.70;;;;;;5008038;28;20512;-70
2023/02/27 13:16:34;;;;;;;3.93;1.53;;;14.50;62.70;;;;;;5006637;28;20485;-70
2023/02/27 13:19:06;;;;;;;2.73;1.33;;;12.30;63.40;;;;;;5003866;28;20482;-70